Fecha, hora, temperatura, viento dirección y velocidad, humedad y presión.

  • 17-07-2019 00:00:00 | 25.40°C | Este |13.00 km/h | 61.00% | 1013.60 hPa
  • 16-07-2019 23:00:00 | 25.60°C | Este |14.00 km/h | 61.00% | 1013.50 hPa
  • 16-07-2019 22:00:00 | 25.80°C | Este |14.00 km/h | 60.00% | 1013.20 hPa
  • 16-07-2019 21:00:00 | 26.30°C | Este |13.00 km/h | 59.00% | 1013.30 hPa
  • 16-07-2019 20:00:00 | 27.30°C | Este |15.00 km/h | 55.00% | 1013.40 hPa
  • 16-07-2019 19:00:00 | 28.10°C | Este |15.00 km/h | 48.00% | 1013.40 hPa
  • 16-07-2019 18:00:00 | 28.70°C | Este |17.00 km/h | 47.00% | 1013.60 hPa
  • 16-07-2019 17:00:00 | 28.80°C | Este |15.00 km/h | 46.00% | 1013.90 hPa
  • 16-07-2019 16:00:00 | 29.20°C | Este |15.00 km/h | 47.00% | 1014.30 hPa
  • 16-07-2019 15:00:00 | 29.20°C | Este |14.00 km/h | 46.00% | 1014.60 hPa
  • 16-07-2019 14:00:00 | 28.70°C | Este |14.00 km/h | 52.00% | 1014.80 hPa
  • 16-07-2019 13:00:00 | 28.60°C | Este |15.00 km/h | 54.00% | 1014.70 hPa
  • 16-07-2019 12:00:00 | 28.30°C | Este |14.00 km/h | 60.00% | 1014.70 hPa
  • 16-07-2019 11:00:00 | 28.10°C | Sudeste |11.00 km/h | 59.00% | 1014.50 hPa
  • 16-07-2019 10:00:00 | 27.40°C | Este |12.00 km/h | 65.00% | 1014.20 hPa
  • 16-07-2019 09:00:00 | 27.20°C | Este |12.00 km/h | 68.00% | 1013.90 hPa
  • 16-07-2019 08:00:00 | 25.70°C | Este |12.00 km/h | 74.00% | 1013.40 hPa
  • 16-07-2019 07:00:00 | 24.60°C | Este |11.00 km/h | 77.00% | 1013.00 hPa
  • 16-07-2019 06:00:00 | 24.90°C | Este |13.00 km/h | 76.00% | 1012.90 hPa
  • 16-07-2019 05:00:00 | 24.80°C | Este |13.00 km/h | 77.00% | 1012.70 hPa
  • 16-07-2019 04:00:00 | 23.70°C | Nordeste |9.00 km/h | 80.00% | 1012.60 hPa
  • 16-07-2019 02:00:00 | 24.20°C | Nordeste |8.00 km/h | 79.00% | 1012.60 hPa
  • 16-07-2019 01:00:00 | 25.00°C | Sudeste |7.00 km/h | 77.00% | 1012.40 hPa
  • 16-07-2019 00:00:00 | 24.90°C | Calma |0.00 km/h | 77.00% | 1011.80 hPa
    • diseño web asturias Información sobre el estado de las mareas, altura de la marejada, temperatura del agua y otros datos de Gijón en Asturias.

      Surf Gijón